Time;durP1;ratioP1;P1;durP2;ratioP2;P2;SDS_P1;SDS_P2;PMS_P1;PMS_P2;Temp;Humidity;BMP_temperature;BMP_pressure;BME280_temperature;BME280_humidity;BME280_pressure;Samples;Min_cycle;Max_cycle;Signal;HPM_P1;HPM_P2
2022/11/27 00:01:59;;;;;;;11.10;9.47;;;10.60;50.10;;;;;;5092354;22;20223;-42
2022/11/27 00:04:25;;;;;;;18.57;10.80;;;10.50;50.00;;;;;;5051431;28;20165;-40
2022/11/27 00:06:50;;;;;;;16.47;10.03;;;10.50;50.00;;;;;;5053281;28;20204;-41
2022/11/27 00:09:16;;;;;;;12.80;9.90;;;10.50;50.00;;;;;;5055188;28;20177;-39
2022/11/27 00:11:43;;;;;;;20.47;11.00;;;10.50;49.90;;;;;;5055421;28;20656;-41
2022/11/27 00:14:11;;;;;;;13.88;10.38;;;10.50;49.90;;;;;;5053824;28;20625;-40
2022/11/27 00:16:36;;;;;;;14.48;10.85;;;10.50;49.90;;;;;;5054556;28;20368;-41
2022/11/27 00:19:02;;;;;;;18.07;10.87;;;10.50;49.50;;;;;;5055075;28;20176;-39
2022/11/27 00:21:31;;;;;;;15.83;9.20;;;10.50;49.30;;;;;;5054911;28;20187;-41
2022/11/27 00:23:59;;;;;;;20.27;9.68;;;10.50;49.40;;;;;;5055186;28;20245;-40
2022/11/27 00:26:25;;;;;;;18.73;9.63;;;10.40;49.30;;;;;;5054259;28;20205;-39
2022/11/27 00:28:51;;;;;;;17.30;9.35;;;10.40;49.20;;;;;;5054995;28;20307;-39
2022/11/27 00:31:25;;;;;;;15.83;8.80;;;10.40;49.30;;;;;;5054837;28;20301;-40
2022/11/27 00:33:54;;;;;;;15.18;9.77;;;10.50;49.50;;;;;;5055007;28;20423;-40
2022/11/27 00:36:20;;;;;;;14.73;9.85;;;10.40;49.10;;;;;;5054183;28;20583;-40
2022/11/27 00:38:46;;;;;;;14.73;8.98;;;10.40;49.20;;;;;;5054716;28;20533;-40
2022/11/27 00:41:15;;;;;;;15.27;8.93;;;10.40;49.20;;;;;;5054570;28;20193;-41
2022/11/27 00:43:41;;;;;;;11.70;8.43;;;10.40;49.00;;;;;;5054540;28;20216;-38
2022/11/27 00:46:07;;;;;;;13.05;8.73;;;10.50;48.80;;;;;;5052684;28;20205;-39
2022/11/27 00:48:34;;;;;;;18.95;9.52;;;10.50;48.60;;;;;;5054480;28;20180;-39
2022/11/27 00:51:01;;;;;;;14.00;9.43;;;10.50;48.50;;;;;;5054391;28;20603;-40
2022/11/27 00:53:28;;;;;;;17.45;9.70;;;10.40;48.40;;;;;;5054414;28;20169;-39
2022/11/27 00:55:55;;;;;;;10.20;7.20;;;10.40;48.60;;;;;;5053816;28;20173;-40
2022/11/27 00:58:21;;;;;;;16.42;8.63;;;10.30;48.80;;;;;;5054346;28;20637;-41
2022/11/27 01:00:57;;;;;;;16.55;9.98;;;10.30;48.70;;;;;;5052734;28;20611;-39
2022/11/27 01:03:24;;;;;;;15.85;8.55;;;10.30;48.70;;;;;;5054427;28;20173;-40
2022/11/27 01:05:50;;;;;;;15.32;8.55;;;10.30;48.60;;;;;;5053670;28;20209;-40
2022/11/27 01:08:16;;;;;;;20.33;9.23;;;10.30;49.30;;;;;;5054152;28;20652;-39
2022/11/27 01:10:53;;;;;;;12.25;8.90;;;10.30;48.60;;;;;;5053944;28;20246;-40
2022/11/27 01:13:22;;;;;;;13.88;8.27;;;10.30;48.50;;;;;;5052663;28;20169;-41
2022/11/27 01:15:58;;;;;;;23.02;9.55;;;10.20;48.60;;;;;;5053427;28;20173;-41
2022/11/27 01:18:24;;;;;;;15.15;9.73;;;10.20;48.80;;;;;;5053089;28;20266;-41
2022/11/27 01:20:54;;;;;;;13.90;9.15;;;10.20;48.50;;;;;;5053855;28;20707;-40
2022/11/27 01:23:21;;;;;;;16.05;9.40;;;10.30;48.60;;;;;;5053821;28;20207;-39
2022/11/27 01:25:47;;;;;;;18.25;8.32;;;10.20;48.40;;;;;;5053173;28;20200;-40
2022/11/27 01:28:14;;;;;;;19.13;10.50;;;10.20;48.70;;;;;;5053681;28;20173;-41
2022/11/27 01:30:40;;;;;;;15.52;8.63;;;10.20;48.70;;;;;;5053709;28;20795;-41
2022/11/27 01:33:05;;;;;;;14.03;9.50;;;10.20;48.80;;;;;;5053636;28;20176;-40
2022/11/27 01:35:32;;;;;;;14.67;6.73;;;10.20;48.50;;;;;;5053545;28;20510;-40
2022/11/27 01:37:57;;;;;;;12.05;7.85;;;10.20;48.40;;;;;;5053359;28;20191;-40
2022/11/27 01:40:23;;;;;;;10.10;7.50;;;10.10;48.60;;;;;;5053680;28;20544;-41
2022/11/27 01:42:49;;;;;;;12.77;8.80;;;10.10;48.80;;;;;;5053432;28;20192;-40
2022/11/27 01:45:17;;;;;;;12.03;8.40;;;10.10;48.90;;;;;;5053282;28;20200;-39
2022/11/27 01:47:51;;;;;;;9.73;7.00;;;10.10;48.60;;;;;;5052914;28;20184;-40
2022/11/27 01:50:28;;;;;;;11.70;7.65;;;10.00;48.40;;;;;;5053341;28;20199;-40
2022/11/27 01:53:00;;;;;;;10.48;7.13;;;10.00;48.60;;;;;;5053360;28;20165;-40
2022/11/27 01:55:36;;;;;;;9.30;8.05;;;10.00;48.60;;;;;;5053174;28;20157;-41
2022/11/27 01:58:20;;;;;;;11.60;8.85;;;10.00;48.60;;;;;;5053214;28;20201;-41
2022/11/27 02:00:46;;;;;;;12.82;7.28;;;10.00;48.40;;;;;;5053355;28;20181;-40
2022/11/27 02:03:12;;;;;;;8.60;6.50;;;9.90;48.60;;;;;;5053770;28;20169;-41
2022/11/27 02:05:38;;;;;;;12.27;6.13;;;9.90;48.60;;;;;;5052813;28;20442;-41
2022/11/27 02:08:08;;;;;;;10.77;8.30;;;9.80;48.40;;;;;;5053410;28;20502;-40
2022/11/27 02:10:47;;;;;;;10.45;6.60;;;9.80;48.30;;;;;;5052920;28;20653;-41
2022/11/27 02:13:42;;;;;;;12.45;7.40;;;9.80;48.20;;;;;;5053201;28;20163;-41
2022/11/27 02:16:16;;;;;;;9.10;6.35;;;9.70;47.70;;;;;;5052229;28;20179;-41
2022/11/27 02:19:24;;;;;;;11.82;6.28;;;9.60;47.70;;;;;;5053037;28;20179;-41
2022/11/27 02:22:14;;;;;;;9.45;6.95;;;9.50;47.60;;;;;;5052368;28;20204;-40
2022/11/27 02:25:01;;;;;;;10.05;6.60;;;9.30;47.70;;;;;;5052797;28;20157;-41
2022/11/27 02:27:38;;;;;;;12.10;6.82;;;9.20;47.90;;;;;;5051968;28;20195;-41
2022/11/27 02:30:05;;;;;;;9.73;8.63;;;9.20;48.00;;;;;;5052344;28;20214;-40
2022/11/27 02:32:57;;;;;;;9.90;6.85;;;9.10;48.10;;;;;;5053110;28;20200;-41
2022/11/27 02:35:40;;;;;;;15.15;7.57;;;9.00;47.80;;;;;;5053481;28;20174;-41
2022/11/27 02:38:13;;;;;;;12.07;8.45;;;8.90;47.80;;;;;;5053385;28;20728;-40
2022/11/27 02:40:54;;;;;;;10.75;6.65;;;8.80;48.00;;;;;;5053241;28;20200;-40
2022/11/27 02:43:29;;;;;;;9.65;6.47;;;8.80;48.00;;;;;;5052758;28;20194;-40
2022/11/27 02:45:56;;;;;;;10.07;6.30;;;8.70;48.00;;;;;;5051727;28;20241;-40
2022/11/27 02:48:29;;;;;;;10.40;6.18;;;8.70;48.00;;;;;;5052300;28;20172;-41
2022/11/27 02:50:55;;;;;;;10.45;6.95;;;8.70;48.00;;;;;;5052345;28;20190;-41
2022/11/27 02:53:40;;;;;;;9.05;6.72;;;8.60;47.80;;;;;;5052217;28;20176;-40
2022/11/27 02:56:11;;;;;;;11.82;6.70;;;8.60;47.40;;;;;;5051790;28;20177;-40
2022/11/27 02:58:39;;;;;;;12.43;6.70;;;8.50;47.80;;;;;;5052124;28;20727;-40
2022/11/27 03:01:06;;;;;;;9.13;6.05;;;8.40;47.80;;;;;;5051949;28;20645;-40
2022/11/27 03:03:39;;;;;;;12.98;6.05;;;8.40;47.50;;;;;;5052213;28;20556;-41
2022/11/27 03:06:39;;;;;;;12.13;6.07;;;8.30;47.20;;;;;;5051436;28;20188;-40
2022/11/27 03:09:16;;;;;;;9.88;7.22;;;8.10;47.30;;;;;;5052313;28;20250;-40
2022/11/27 03:11:42;;;;;;;10.07;7.03;;;8.00;47.60;;;;;;5051991;28;20180;-40
2022/11/27 03:14:10;;;;;;;8.02;6.50;;;8.00;47.90;;;;;;5051986;28;20694;-40
2022/11/27 03:16:42;;;;;;;9.18;6.10;;;8.00;47.90;;;;;;5051640;28;20210;-41
2022/11/27 03:19:17;;;;;;;8.55;6.30;;;8.00;47.80;;;;;;5052185;28;20177;-41
2022/11/27 03:22:00;;;;;;;12.13;6.25;;;7.90;47.80;;;;;;5051822;28;20522;-38
2022/11/27 03:24:28;;;;;;;10.43;6.35;;;7.90;47.90;;;;;;5052192;28;20341;-41
2022/11/27 03:26:56;;;;;;;8.25;5.90;;;7.80;47.30;;;;;;5051292;28;20545;-41
2022/11/27 03:29:24;;;;;;;9.00;5.80;;;7.80;47.60;;;;;;5051909;28;20177;-40
2022/11/27 03:31:50;;;;;;;9.75;5.80;;;7.70;47.90;;;;;;5051663;28;20190;-40
2022/11/27 03:34:16;;;;;;;10.50;6.05;;;7.70;48.00;;;;;;5051891;28;20599;-40
2022/11/27 03:36:44;;;;;;;14.80;6.40;;;7.70;47.90;;;;;;5051238;28;20255;-41
2022/11/27 03:39:09;;;;;;;9.45;5.72;;;7.70;47.80;;;;;;5051898;28;20579;-41
2022/11/27 03:42:00;;;;;;;13.00;6.37;;;7.70;47.40;;;;;;5053694;28;20667;-39
2022/11/27 03:44:55;;;;;;;17.10;6.75;;;7.70;47.50;;;;;;5056049;28;20187;-40
2022/11/27 03:47:51;;;;;;;10.45;6.53;;;7.60;47.50;;;;;;5044230;28;20216;-40
2022/11/27 03:50:43;;;;;;;9.60;6.10;;;7.50;47.50;;;;;;5055600;28;20248;-40
2022/11/27 03:53:36;;;;;;;8.93;5.43;;;7.50;47.50;;;;;;5051848;28;20548;-41
2022/11/27 03:56:07;;;;;;;8.45;5.10;;;7.50;47.50;;;;;;5054841;28;20154;-39
2022/11/27 03:58:57;;;;;;;8.10;5.95;;;7.40;47.30;;;;;;5055540;28;20507;-40
2022/11/27 04:01:26;;;;;;;8.65;5.55;;;7.40;46.90;;;;;;5055224;28;20288;-40
2022/11/27 04:03:52;;;;;;;11.20;5.45;;;7.30;47.20;;;;;;5055330;28;20183;-40
2022/11/27 04:06:17;;;;;;;9.93;6.05;;;7.30;47.30;;;;;;5054592;28;20664;-39
2022/11/27 04:08:45;;;;;;;7.00;5.57;;;7.30;47.30;;;;;;5055310;28;20184;-40
2022/11/27 04:11:12;;;;;;;10.77;4.72;;;7.20;47.10;;;;;;5055381;28;20204;-40
2022/11/27 04:13:37;;;;;;;11.63;5.20;;;7.20;46.90;;;;;;5055317;28;20256;-41
2022/11/27 04:16:03;;;;;;;11.63;6.23;;;7.10;47.20;;;;;;5054612;28;20253;-39
2022/11/27 04:18:29;;;;;;;7.03;6.33;;;7.10;47.20;;;;;;5055150;28;20197;-40
2022/11/27 04:20:55;;;;;;;9.30;5.70;;;7.10;47.50;;;;;;5054853;28;20554;-40
2022/11/27 04:23:21;;;;;;;8.07;5.70;;;7.10;47.50;;;;;;5055366;28;20212;-41
2022/11/27 04:25:47;;;;;;;9.10;5.87;;;7.10;47.30;;;;;;5054291;28;20466;-40
2022/11/27 04:28:13;;;;;;;9.65;4.65;;;7.10;47.20;;;;;;5054932;28;20184;-40
2022/11/27 04:30:39;;;;;;;7.95;5.65;;;7.00;46.90;;;;;;5054780;28;20691;-40
2022/11/27 04:33:05;;;;;;;13.27;5.93;;;7.00;47.00;;;;;;5054777;28;20177;-40
2022/11/27 04:35:31;;;;;;;8.17;5.50;;;7.00;46.90;;;;;;5054389;28;20173;-40
2022/11/27 04:37:57;;;;;;;10.90;6.47;;;7.00;47.10;;;;;;5054464;28;20400;-40
2022/11/27 04:40:23;;;;;;;10.07;6.27;;;6.90;47.10;;;;;;5054629;28;20232;-39
2022/11/27 04:42:49;;;;;;;8.68;5.80;;;6.90;47.10;;;;;;5054611;28;20436;-40
2022/11/27 04:45:15;;;;;;;7.85;5.85;;;6.90;47.10;;;;;;5054479;28;20715;-40
2022/11/27 04:47:41;;;;;;;8.23;5.47;;;6.90;46.90;;;;;;5053917;28;20213;-40
2022/11/27 04:50:07;;;;;;;8.30;7.50;;;6.80;46.90;;;;;;5054340;28;20549;-39
2022/11/27 04:52:33;;;;;;;11.57;5.78;;;6.80;46.90;;;;;;5054218;28;20186;-41
2022/11/27 04:54:59;;;;;;;9.70;6.17;;;6.70;46.80;;;;;;5054379;28;20173;-39
2022/11/27 04:57:25;;;;;;;17.23;6.70;;;6.70;46.90;;;;;;5053816;28;20184;-40
2022/11/27 04:59:50;;;;;;;7.00;5.47;;;6.70;47.10;;;;;;5054418;28;20173;-39
2022/11/27 05:02:16;;;;;;;6.90;5.37;;;6.70;47.80;;;;;;5054015;28;20439;-41
2022/11/27 05:04:42;;;;;;;16.37;6.00;;;6.70;47.00;;;;;;5054135;28;20180;-40
2022/11/27 05:07:08;;;;;;;7.97;5.97;;;6.60;46.90;;;;;;5053522;28;20193;-40
2022/11/27 05:09:33;;;;;;;11.40;6.53;;;6.60;46.80;;;;;;5053976;28;20180;-41
2022/11/27 05:11:59;;;;;;;11.10;5.50;;;6.60;46.70;;;;;;5054206;28;20193;-40
2022/11/27 05:14:28;;;;;;;9.20;5.33;;;6.50;46.80;;;;;;5054051;28;20626;-38
2022/11/27 05:16:56;;;;;;;12.20;8.20;;;6.50;47.00;;;;;;5053338;28;20177;-37
2022/11/27 05:19:23;;;;;;;12.00;8.68;;;6.50;47.10;;;;;;5053775;28;20208;-37
2022/11/27 05:21:50;;;;;;;15.65;7.60;;;6.50;47.10;;;;;;5053816;28;20212;-38
2022/11/27 05:24:17;;;;;;;9.00;7.90;;;6.50;47.20;;;;;;5053747;28;20672;-37
2022/11/27 05:26:43;;;;;;;7.28;5.95;;;6.50;47.20;;;;;;5053247;28;20209;-38
2022/11/27 05:29:13;;;;;;;15.25;8.65;;;6.50;47.20;;;;;;5053806;28;20174;-38
2022/11/27 05:31:39;;;;;;;12.90;8.23;;;6.50;47.10;;;;;;5053647;28;20185;-37
2022/11/27 05:34:05;;;;;;;13.03;8.77;;;6.50;47.20;;;;;;5053869;28;20181;-37
2022/11/27 05:36:31;;;;;;;15.32;8.30;;;6.50;47.10;;;;;;5053074;28;20161;-37
2022/11/27 05:38:58;;;;;;;11.65;6.50;;;6.50;47.20;;;;;;5053496;28;20178;-39
2022/11/27 05:41:24;;;;;;;12.55;6.70;;;6.50;47.20;;;;;;5053448;28;20282;-37
2022/11/27 05:43:50;;;;;;;14.13;7.53;;;6.50;47.30;;;;;;5053431;28;20181;-36
2022/11/27 05:46:19;;;;;;;8.30;7.00;;;6.50;47.30;;;;;;5052775;28;20200;-37
2022/11/27 05:48:44;;;;;;;12.50;6.20;;;6.50;47.30;;;;;;5053378;28;20636;-37
2022/11/27 05:51:10;;;;;;;9.70;6.50;;;6.50;47.40;;;;;;5053220;28;20197;-38
2022/11/27 05:53:36;;;;;;;11.20;6.70;;;6.50;47.50;;;;;;5053493;28;20181;-37
2022/11/27 05:56:11;;;;;;;10.40;7.30;;;6.50;47.70;;;;;;5052710;28;20181;-38
2022/11/27 05:58:38;;;;;;;15.02;7.85;;;6.60;47.90;;;;;;5053271;28;20933;-37
2022/11/27 06:01:05;;;;;;;14.65;6.78;;;6.60;48.10;;;;;;5053812;28;20267;-39
2022/11/27 06:03:31;;;;;;;28.20;8.15;;;6.60;48.20;;;;;;5063357;22;20212;-35
2022/11/27 06:05:57;;;;;;;48.72;8.82;;;6.60;48.40;;;;;;5053119;28;20280;-35
2022/11/27 06:08:23;;;;;;;43.97;9.60;;;6.70;48.60;;;;;;5053871;28;20696;-35
2022/11/27 06:10:49;;;;;;;39.23;8.80;;;6.70;48.60;;;;;;5053057;28;20223;-36
2022/11/27 06:13:15;;;;;;;39.00;9.23;;;6.70;48.60;;;;;;5052933;28;20428;-37
2022/11/27 06:15:41;;;;;;;19.45;6.95;;;6.80;48.70;;;;;;5052567;28;20532;-36
2022/11/27 06:18:09;;;;;;;36.75;8.48;;;6.40;48.40;;;;;;5052823;28;20579;-35
2022/11/27 06:20:34;;;;;;;31.67;8.45;;;6.80;49.50;;;;;;5052759;28;20173;-36
2022/11/27 06:23:00;;;;;;;14.73;6.30;;;6.80;48.90;;;;;;5052633;28;20186;-39
2022/11/27 06:25:26;;;;;;;13.87;6.27;;;6.80;48.90;;;;;;5052491;28;20533;-36
2022/11/27 06:27:52;;;;;;;16.87;6.27;;;6.80;49.00;;;;;;5052225;28;20170;-36
2022/11/27 06:30:17;;;;;;;12.43;6.73;;;6.90;49.20;;;;;;5052653;28;20165;-36
2022/11/27 06:32:44;;;;;;;27.83;7.13;;;6.90;49.20;;;;;;5052469;28;20661;-36
2022/11/27 06:35:09;;;;;;;18.33;6.18;;;6.90;49.30;;;;;;5052436;28;20408;-35
2022/11/27 06:37:35;;;;;;;25.97;7.50;;;6.90;49.10;;;;;;5052097;28;20173;-34
2022/11/27 06:40:01;;;;;;;28.93;7.33;;;6.90;49.30;;;;;;5052509;28;20426;-35
2022/11/27 06:42:30;;;;;;;40.60;8.30;;;6.90;49.50;;;;;;5052297;28;20949;-36
2022/11/27 06:44:56;;;;;;;37.42;8.32;;;6.90;49.60;;;;;;5052304;28;20915;-37
2022/11/27 06:47:22;;;;;;;39.47;7.72;;;6.90;49.60;;;;;;5051675;28;20339;-37
2022/11/27 06:49:48;;;;;;;27.67;8.00;;;6.90;49.70;;;;;;5052547;28;20235;-37
2022/11/27 06:52:14;;;;;;;13.80;7.13;;;6.90;50.00;;;;;;5052139;28;20820;-37
2022/11/27 06:54:39;;;;;;;14.37;5.60;;;6.90;50.00;;;;;;5052243;28;20173;-37
2022/11/27 06:57:05;;;;;;;30.87;7.30;;;7.00;50.00;;;;;;5051538;28;20169;-37
2022/11/27 06:59:31;;;;;;;40.37;7.90;;;7.00;49.90;;;;;;5052481;28;20169;-38
2022/11/27 07:01:57;;;;;;;35.83;7.20;;;7.10;49.90;;;;;;5051835;28;20223;-39
2022/11/27 07:04:22;;;;;;;41.93;7.57;;;7.10;49.80;;;;;;5052479;28;20515;-40
2022/11/27 07:06:48;;;;;;;38.13;8.87;;;7.10;50.00;;;;;;5051365;28;20568;-40
2022/11/27 07:09:14;;;;;;;50.47;8.10;;;7.00;50.20;;;;;;5052012;28;20454;-40
2022/11/27 07:11:41;;;;;;;30.70;6.95;;;7.00;50.40;;;;;;5051944;28;20177;-40
2022/11/27 07:14:06;;;;;;;43.38;9.35;;;6.90;50.40;;;;;;5051942;28;20226;-40
2022/11/27 07:16:35;;;;;;;13.03;7.23;;;6.90;50.60;;;;;;5050433;28;20169;-40
2022/11/27 07:19:03;;;;;;;10.07;5.60;;;7.00;50.70;;;;;;5051815;28;20322;-41
2022/11/27 07:21:29;;;;;;;12.50;6.43;;;7.00;50.70;;;;;;5051780;28;20176;-39
2022/11/27 07:23:55;;;;;;;48.80;9.00;;;7.10;50.80;;;;;;5051904;28;20557;-40
2022/11/27 07:26:24;;;;;;;15.00;6.90;;;7.10;51.50;;;;;;5051172;28;20443;-41
2022/11/27 07:28:50;;;;;;;27.33;8.55;;;7.10;51.00;;;;;;5051720;28;20185;-40
2022/11/27 07:31:21;;;;;;;20.03;8.17;;;7.10;51.00;;;;;;5052002;28;20166;-40
2022/11/27 07:33:48;;;;;;;27.50;7.35;;;7.20;50.90;;;;;;5051899;28;20812;-38
2022/11/27 07:36:31;;;;;;;21.95;8.02;;;7.20;51.00;;;;;;5051233;28;20555;-39
2022/11/27 07:38:57;;;;;;;23.13;7.07;;;7.30;51.00;;;;;;5051716;28;20169;-41
2022/11/27 07:41:23;;;;;;;15.13;7.50;;;7.30;50.90;;;;;;5051682;28;20169;-41
2022/11/27 07:43:49;;;;;;;24.33;7.10;;;7.30;50.80;;;;;;5051584;28;20196;-40
2022/11/27 07:46:22;;;;;;;17.00;9.17;;;7.30;50.90;;;;;;5050948;28;20196;-40
2022/11/27 07:48:48;;;;;;;19.40;6.55;;;7.40;50.90;;;;;;5051948;28;20185;-41
2022/11/27 07:51:17;;;;;;;27.40;8.53;;;7.30;51.10;;;;;;5051513;28;20653;-40
2022/11/27 07:53:43;;;;;;;11.82;7.70;;;7.30;51.20;;;;;;5051653;28;20455;-40
2022/11/27 07:56:10;;;;;;;21.08;7.72;;;7.40;51.30;;;;;;5050866;28;20558;-39
2022/11/27 07:58:36;;;;;;;15.35;8.43;;;7.40;51.20;;;;;;5051602;28;20619;-40
2022/11/27 08:01:07;;;;;;;11.25;7.32;;;7.40;51.40;;;;;;5051577;28;20181;-40
2022/11/27 08:03:33;;;;;;;12.45;7.57;;;7.50;51.30;;;;;;5051305;28;20576;-41
2022/11/27 08:05:59;;;;;;;22.60;9.40;;;7.50;51.50;;;;;;5050822;28;20197;-40
2022/11/27 08:08:25;;;;;;;12.17;8.90;;;7.50;51.60;;;;;;5051440;28;20415;-41
2022/11/27 08:10:50;;;;;;;34.03;11.00;;;7.60;51.70;;;;;;5051394;28;20173;-40
2022/11/27 08:13:16;;;;;;;14.63;9.33;;;7.70;51.60;;;;;;5051343;28;20181;-39
2022/11/27 08:15:42;;;;;;;14.30;7.90;;;7.80;51.30;;;;;;5050782;28;20540;-41
2022/11/27 08:18:08;;;;;;;14.10;8.20;;;7.80;51.30;;;;;;5051266;28;20510;-41
2022/11/27 08:20:33;;;;;;;17.00;9.50;;;7.80;51.30;;;;;;5051356;28;20162;-40
2022/11/27 08:22:59;;;;;;;18.63;9.73;;;7.80;51.50;;;;;;5051242;28;20192;-41
2022/11/27 08:25:25;;;;;;;34.17;11.53;;;7.90;51.50;;;;;;5051204;28;20403;-40
2022/11/27 08:27:51;;;;;;;15.65;10.48;;;7.90;51.50;;;;;;5053009;28;20224;-41
2022/11/27 08:30:17;;;;;;;23.30;9.77;;;7.90;51.40;;;;;;5055101;28;20177;-40
2022/11/27 08:32:43;;;;;;;30.90;13.40;;;8.00;51.50;;;;;;5054698;28;20280;-40
2022/11/27 08:35:10;;;;;;;31.73;11.90;;;8.00;51.40;;;;;;5054557;28;20852;-40
2022/11/27 08:37:36;;;;;;;22.80;10.85;;;8.00;51.40;;;;;;5054188;28;20177;-40
2022/11/27 08:40:03;;;;;;;36.65;12.30;;;8.00;51.50;;;;;;5054604;28;20536;-40
2022/11/27 08:42:29;;;;;;;33.25;12.40;;;8.00;51.40;;;;;;5054462;28;20280;-40
2022/11/27 08:44:55;;;;;;;60.67;32.43;;;8.10;51.70;;;;;;5054752;28;20268;-39
2022/11/27 08:47:20;;;;;;;20.73;14.00;;;8.20;51.50;;;;;;5053877;28;20547;-41
2022/11/27 08:49:46;;;;;;;12.43;9.07;;;8.20;51.50;;;;;;5054698;28;20177;-40
2022/11/27 08:52:12;;;;;;;14.17;11.27;;;8.30;51.30;;;;;;5054735;28;20720;-41
2022/11/27 08:54:38;;;;;;;21.92;10.80;;;8.30;51.40;;;;;;5054541;28;20170;-40
2022/11/27 08:57:03;;;;;;;18.27;11.73;;;8.30;51.60;;;;;;5053733;28;20525;-40
2022/11/27 08:59:29;;;;;;;16.70;11.30;;;8.40;51.50;;;;;;5054327;28;20187;-40
2022/11/27 09:01:55;;;;;;;18.38;11.63;;;8.40;51.50;;;;;;5054236;28;20596;-40
2022/11/27 09:04:21;;;;;;;20.60;11.63;;;8.50;51.50;;;;;;5054767;28;20695;-39
2022/11/27 09:06:50;;;;;;;17.73;12.43;;;8.50;51.70;;;;;;5053545;28;20195;-39
2022/11/27 09:09:15;;;;;;;14.98;10.98;;;8.60;51.40;;;;;;5054330;28;20196;-39
2022/11/27 09:11:41;;;;;;;21.93;12.70;;;8.60;51.30;;;;;;5053998;28;20649;-39
2022/11/27 09:14:08;;;;;;;23.52;13.15;;;8.70;51.30;;;;;;5054203;28;20161;-39
2022/11/27 09:16:34;;;;;;;22.90;12.27;;;8.60;51.20;;;;;;5053797;28;20184;-39
2022/11/27 09:19:01;;;;;;;24.98;12.52;;;8.70;51.30;;;;;;5053835;28;20201;-40
2022/11/27 09:21:31;;;;;;;23.77;11.82;;;8.70;51.30;;;;;;5053823;28;20684;-39
2022/11/27 09:23:58;;;;;;;22.30;14.10;;;8.70;51.30;;;;;;5053816;28;20197;-39
2022/11/27 09:26:25;;;;;;;25.23;16.33;;;8.70;51.50;;;;;;5053176;28;20553;-39
2022/11/27 09:28:53;;;;;;;21.88;14.05;;;8.70;51.70;;;;;;5054016;28;20176;-39
2022/11/27 09:31:20;;;;;;;18.23;12.38;;;8.80;51.80;;;;;;5052359;28;20178;-39
2022/11/27 09:33:45;;;;;;;19.67;12.48;;;8.80;51.50;;;;;;5053529;28;20229;-40
2022/11/27 09:36:17;;;;;;;21.10;13.63;;;8.90;51.40;;;;;;5053014;28;20170;-39
2022/11/27 09:38:43;;;;;;;27.63;13.75;;;8.90;51.40;;;;;;5052589;28;20161;-40
2022/11/27 09:41:32;;;;;;;18.15;11.93;;;8.90;51.50;;;;;;5053742;28;20189;-41
2022/11/27 09:44:17;;;;;;;24.70;13.10;;;8.90;51.70;;;;;;5053420;28;20160;-41
2022/11/27 09:46:43;;;;;;;23.10;14.57;;;8.90;51.80;;;;;;5052671;28;20201;-40
2022/11/27 09:49:14;;;;;;;28.60;16.13;;;8.90;51.90;;;;;;5053322;28;20180;-41
2022/11/27 09:51:47;;;;;;;33.35;24.00;;;9.00;51.90;;;;;;5053185;28;20650;-37
2022/11/27 09:54:48;;;;;;;27.20;16.00;;;9.10;52.00;;;;;;5053386;28;20184;-36
2022/11/27 09:57:17;;;;;;;21.45;13.93;;;9.20;51.90;;;;;;5048621;28;20723;-36
2022/11/27 09:59:48;;;;;;;26.40;15.68;;;9.40;51.90;;;;;;5053306;28;20204;-37
2022/11/27 10:02:29;;;;;;;25.15;16.30;;;9.50;51.80;;;;;;5053027;28;20248;-37
2022/11/27 10:04:56;;;;;;;27.05;16.42;;;9.70;51.70;;;;;;5051665;28;20180;-36
2022/11/27 10:07:57;;;;;;;24.63;15.82;;;9.90;51.40;;;;;;5052075;28;20203;-41
2022/11/27 10:10:45;;;;;;;24.92;15.57;;;10.00;51.10;;;;;;5053199;28;20168;-38
2022/11/27 10:13:23;;;;;;;27.00;17.95;;;10.20;51.30;;;;;;5052849;28;20759;-38
2022/11/27 10:16:07;;;;;;;30.30;17.25;;;10.50;51.40;;;;;;5052141;28;20179;-40
2022/11/27 10:18:46;;;;;;;26.25;16.95;;;10.70;51.30;;;;;;5052977;28;20176;-41
2022/11/27 10:21:47;;;;;;;23.48;15.88;;;11.00;51.20;;;;;;5052907;28;20184;-42
2022/11/27 10:24:37;;;;;;;24.80;16.65;;;11.20;50.90;;;;;;5052601;28;20161;-40
2022/11/27 10:27:16;;;;;;;22.95;16.05;;;11.50;50.60;;;;;;5052286;28;20192;-41
2022/11/27 10:29:51;;;;;;;21.27;15.43;;;11.70;49.90;;;;;;5052611;28;20161;-41
2022/11/27 10:32:20;;;;;;;22.65;14.88;;;12.10;49.40;;;;;;5052655;28;20189;-40
2022/11/27 10:35:00;;;;;;;22.35;14.80;;;12.20;49.20;;;;;;5052581;28;20173;-42
2022/11/27 10:37:44;;;;;;;22.52;15.23;;;12.30;49.10;;;;;;5052107;28;20157;-42
2022/11/27 10:40:45;;;;;;;26.00;15.75;;;12.50;49.00;;;;;;5052405;28;20540;-41
2022/11/27 10:43:18;;;;;;;18.83;13.70;;;12.60;48.70;;;;;;5021353;28;20229;-41
2022/11/27 10:45:57;;;;;;;20.13;13.70;;;12.70;48.60;;;;;;5051804;28;20177;-42
2022/11/27 10:48:24;;;;;;;18.25;13.90;;;13.00;48.10;;;;;;5052536;28;20494;-40
2022/11/27 10:50:49;;;;;;;18.13;12.68;;;13.30;47.70;;;;;;5051939;28;20177;-41
2022/11/27 10:53:33;;;;;;;18.30;12.73;;;13.30;47.80;;;;;;5052346;28;20200;-41
2022/11/27 10:56:46;;;;;;;20.58;13.05;;;13.50;47.40;;;;;;5051610;28;20395;-41
2022/11/27 10:59:21;;;;;;;18.52;13.05;;;13.50;46.80;;;;;;5044911;28;20185;-38
2022/11/27 11:01:48;;;;;;;17.65;12.75;;;13.60;46.50;;;;;;5051861;28;20180;-38
2022/11/27 11:04:19;;;;;;;18.65;11.35;;;13.60;45.50;;;;;;5052409;28;20204;-38
2022/11/27 11:06:48;;;;;;;21.20;12.70;;;13.60;45.70;;;;;;5051701;28;20250;-38
2022/11/27 11:09:22;;;;;;;19.13;12.10;;;13.60;45.20;;;;;;5052308;28;20177;-38
2022/11/27 11:11:48;;;;;;;16.45;12.52;;;13.50;45.60;;;;;;5051923;28;20172;-41
2022/11/27 11:14:23;;;;;;;16.48;12.32;;;13.60;45.70;;;;;;5051789;28;20177;-41
2022/11/27 11:16:50;;;;;;;15.52;10.10;;;13.60;45.60;;;;;;5051354;28;20157;-42
2022/11/27 11:19:23;;;;;;;14.65;10.93;;;13.60;45.30;;;;;;5051964;28;20173;-41
2022/11/27 11:21:49;;;;;;;21.00;11.77;;;13.70;45.80;;;;;;5051710;28;20232;-42
2022/11/27 11:24:27;;;;;;;10.70;6.03;;;13.80;44.90;;;;;;5051889;28;20499;-41
2022/11/27 11:27:03;;;;;;;6.82;4.78;;;13.90;41.70;;;;;;5051271;28;20176;-41
2022/11/27 11:29:50;;;;;;;10.43;5.05;;;14.20;40.90;;;;;;5051802;28;20161;-41
2022/11/27 11:32:18;;;;;;;6.93;4.68;;;14.30;38.00;;;;;;5051760;28;20219;-41
2022/11/27 11:35:01;;;;;;;8.85;4.93;;;14.40;38.20;;;;;;5051943;28;20177;-41
2022/11/27 11:37:37;;;;;;;6.88;4.05;;;14.50;39.00;;;;;;5051423;28;20177;-41
2022/11/27 11:40:08;;;;;;;6.55;4.13;;;14.50;37.60;;;;;;5051870;28;20176;-41
2022/11/27 11:42:37;;;;;;;5.85;4.35;;;14.60;38.10;;;;;;5051679;28;20587;-40
2022/11/27 11:45:15;;;;;;;7.82;4.68;;;14.70;36.60;;;;;;5051934;28;20208;-40
2022/11/27 11:47:49;;;;;;;6.10;5.43;;;15.00;37.30;;;;;;5051238;28;20599;-41
2022/11/27 11:50:39;;;;;;;7.70;4.70;;;15.40;37.90;;;;;;5051851;28;20200;-42
2022/11/27 11:53:11;;;;;;;8.05;4.40;;;15.60;36.40;;;;;;5041641;28;20205;-41
2022/11/27 11:55:49;;;;;;;6.88;4.45;;;15.60;35.80;;;;;;5051000;28;20173;-41
2022/11/27 11:58:57;;;;;;;7.18;4.18;;;15.50;35.30;;;;;;5051504;28;20165;-40
2022/11/27 12:01:52;;;;;;;6.50;4.45;;;15.20;34.60;;;;;;5034928;28;20178;-41
2022/11/27 12:04:33;;;;;;;8.05;3.85;;;14.90;35.80;;;;;;5096859;22;20231;-41
2022/11/27 12:07:18;;;;;;;9.20;4.22;;;15.00;35.00;;;;;;5054845;28;20196;-42
2022/11/27 12:09:43;;;;;;;11.10;4.93;;;15.20;35.00;;;;;;5055372;28;20218;-43
2022/11/27 12:12:36;;;;;;;7.60;4.93;;;15.80;35.70;;;;;;5055467;28;20201;-42
2022/11/27 12:15:25;;;;;;;10.27;4.70;;;16.50;36.20;;;;;;5035131;28;20491;-42
2022/11/27 12:18:15;;;;;;;6.22;4.20;;;17.30;34.00;;;;;;5034771;28;20183;-43
2022/11/27 12:20:46;;;;;;;6.90;4.88;;;17.90;31.10;;;;;;5035230;28;20212;-42
2022/11/27 12:23:41;;;;;;;7.97;5.47;;;18.20;31.50;;;;;;5035520;28;20201;-43
2022/11/27 12:26:27;;;;;;;8.63;4.85;;;18.40;31.40;;;;;;5035025;28;20253;-42
2022/11/27 12:29:05;;;;;;;9.43;4.15;;;19.00;28.60;;;;;;5035414;28;20166;-42
2022/11/27 12:31:46;;;;;;;6.43;3.85;;;19.30;31.20;;;;;;5035140;28;20169;-43
2022/11/27 12:34:46;;;;;;;4.35;3.83;;;19.20;30.10;;;;;;5035438;28;20559;-43
2022/11/27 12:37:39;;;;;;;5.53;3.88;;;19.00;30.00;;;;;;5034495;28;20166;-42
2022/11/27 12:40:13;;;;;;;7.63;4.10;;;18.90;29.50;;;;;;5035160;28;20506;-43
2022/11/27 12:42:47;;;;;;;9.73;4.75;;;18.80;29.80;;;;;;5035037;28;20633;-42
2022/11/27 12:45:27;;;;;;;5.47;4.03;;;19.40;29.60;;;;;;5034921;28;20178;-43
2022/11/27 12:48:03;;;;;;;7.80;4.85;;;20.70;29.50;;;;;;5034147;28;20557;-43
2022/11/27 12:50:47;;;;;;;4.97;3.90;;;21.70;27.60;;;;;;5034531;28;20170;-44
2022/11/27 12:53:27;;;;;;;4.47;3.90;;;22.50;25.00;;;;;;5034652;28;20193;-43
2022/11/27 12:56:09;;;;;;;10.50;5.07;;;22.80;26.30;;;;;;5033959;28;20216;-43
2022/11/27 12:58:41;;;;;;;6.60;4.82;;;22.70;25.80;;;;;;5034487;28;20166;-43
2022/11/27 13:01:14;;;;;;;6.13;5.00;;;22.30;24.50;;;;;;5034414;28;20170;-43
2022/11/27 13:03:59;;;;;;;6.20;4.90;;;21.60;23.20;;;;;;5034257;28;20225;-43
2022/11/27 13:06:28;;;;;;;7.93;5.30;;;20.80;25.00;;;;;;5033757;28;20267;-43